createdAt,value
2019-01-25T00:00:07.917Z,-4.10
2019-01-25T00:02:51.381Z,-4.10
2019-01-25T00:05:32.523Z,-4.10
2019-01-25T00:08:16.298Z,-4.10
2019-01-25T00:10:57.340Z,-4.10
2019-01-25T00:13:41.522Z,-4.10
2019-01-25T00:16:10.804Z,-4.20
2019-01-25T00:18:59.123Z,-4.00
2019-01-25T00:21:47.340Z,-4.10
2019-01-25T00:24:28.770Z,-4.20
2019-01-25T00:27:09.669Z,-4.00
2019-01-25T00:29:38.730Z,-4.10
2019-01-25T00:32:27.127Z,-4.00
2019-01-25T00:35:15.360Z,-4.10
2019-01-25T00:37:56.620Z,-4.20
2019-01-25T00:40:37.706Z,-4.20
2019-01-25T00:43:06.786Z,-4.20
2019-01-25T00:45:55.122Z,-4.10
2019-01-25T00:48:43.259Z,-4.10
2019-01-25T00:51:24.228Z,-4.10
2019-01-25T00:54:05.264Z,-4.10
2019-01-25T00:56:44.550Z,-3.80
2019-01-25T00:59:32.766Z,-4.00
2019-01-25T01:02:21.022Z,-4.00
2019-01-25T01:05:01.691Z,-4.00
2019-01-25T01:13:26.721Z,-3.90
2019-01-25T01:15:55.834Z,-3.90
2019-01-25T01:18:44.086Z,-4.00
2019-01-25T01:21:13.121Z,-3.90
2019-01-25T01:24:01.420Z,-3.90
2019-01-25T01:26:42.788Z,-3.90
2019-01-25T01:29:11.933Z,-3.80
2019-01-25T01:32:00.248Z,-3.90
2019-01-25T01:34:41.612Z,-3.90
2019-01-25T01:37:10.730Z,-4.10
2019-01-25T01:39:58.887Z,-3.90
2019-01-25T01:42:46.994Z,-4.00
2019-01-25T01:45:27.915Z,-4.00
2019-01-25T01:48:09.076Z,-3.90
2019-01-25T01:50:50.320Z,-3.80
2019-01-25T01:53:31.724Z,-3.90
2019-01-25T01:56:12.453Z,-3.80
2019-01-25T01:58:53.135Z,-4.00
2019-01-25T02:01:33.689Z,-3.90
2019-01-25T02:04:14.281Z,-3.90
2019-01-25T02:06:55.267Z,-3.80
2019-01-25T02:09:36.023Z,-3.90
2019-01-25T02:15:24.188Z,-3.80
2019-01-25T02:18:05.772Z,-3.80
2019-01-25T02:20:47.026Z,-3.70
2019-01-25T02:23:43.612Z,-3.70
2019-01-25T02:26:24.570Z,-3.80
2019-01-25T02:29:05.100Z,-3.80
2019-01-25T02:31:45.548Z,-3.80
2019-01-25T02:34:14.535Z,-3.80
2019-01-25T02:37:02.864Z,-3.70
2019-01-25T02:39:44.057Z,-3.70
2019-01-25T02:42:24.607Z,-3.80
2019-01-25T02:45:05.445Z,-3.80
2019-01-25T02:47:46.115Z,-3.70
2019-01-25T02:50:27.117Z,-3.70
2019-01-25T02:53:07.698Z,-3.80
2019-01-25T02:55:48.462Z,-3.80
2019-01-25T02:58:29.176Z,-3.70
2019-01-25T03:04:07.158Z,-3.70
2019-01-25T03:06:48.849Z,-3.70
2019-01-25T03:09:30.141Z,-3.70
2019-01-25T03:12:11.066Z,-3.70
2019-01-25T03:14:51.688Z,-3.80
2019-01-25T03:20:43.800Z,-3.70
2019-01-25T03:23:32.011Z,-3.70
2019-01-25T03:26:13.392Z,-3.80
2019-01-25T03:28:42.291Z,-3.70
2019-01-25T03:32:08.653Z,-3.50
2019-01-25T03:34:56.844Z,-3.60
2019-01-25T03:37:38.075Z,-3.60
2019-01-25T03:40:18.791Z,-3.60
2019-01-25T03:43:11.040Z,-3.60
2019-01-25T03:48:27.716Z,-3.70
2019-01-25T03:51:15.952Z,-3.60
2019-01-25T03:53:59.572Z,-3.60
2019-01-25T03:56:40.927Z,-3.60
2019-01-25T03:59:22.073Z,-3.60
2019-01-25T04:02:02.608Z,-3.50
2019-01-25T04:04:42.000Z,-3.60
2019-01-25T04:07:30.079Z,-3.50
2019-01-25T04:10:14.651Z,-3.50
2019-01-25T04:12:55.877Z,-3.50
2019-01-25T04:15:37.190Z,-3.50
2019-01-25T04:18:18.060Z,-3.40
2019-01-25T04:20:59.131Z,-3.40
2019-01-25T04:23:39.764Z,-3.40
2019-01-25T04:26:29.110Z,-3.50
2019-01-25T04:31:54.143Z,-3.40
2019-01-25T04:34:39.457Z,-3.40
2019-01-25T04:40:11.222Z,-3.40
2019-01-25T04:42:57.932Z,-3.40
2019-01-25T04:45:39.003Z,-3.40
2019-01-25T04:48:20.391Z,-3.40
2019-01-25T04:51:02.982Z,-3.30
2019-01-25T04:53:43.593Z,-3.30
2019-01-25T04:56:12.622Z,-3.30
2019-01-25T05:01:52.637Z,-3.20
2019-01-25T05:04:35.765Z,-3.30
2019-01-25T05:10:36.826Z,-3.10
2019-01-25T05:13:18.343Z,-3.20
2019-01-25T05:16:09.663Z,-3.10
2019-01-25T05:18:57.817Z,-3.20
2019-01-25T05:21:38.735Z,-3.30
2019-01-25T05:24:27.323Z,-3.20
2019-01-25T05:27:07.814Z,-3.10
2019-01-25T05:29:48.690Z,-3.30
2019-01-25T05:32:30.192Z,-3.20
2019-01-25T05:35:10.827Z,-3.20
2019-01-25T05:37:50.174Z,-3.30
2019-01-25T05:40:31.230Z,-3.20
2019-01-25T05:43:12.627Z,-3.20
2019-01-25T05:45:44.107Z,-3.20
2019-01-25T05:48:32.526Z,-3.10
2019-01-25T05:51:40.610Z,-3.10
2019-01-25T05:54:21.315Z,-3.00
2019-01-25T05:57:01.791Z,-2.40
2019-01-25T05:59:43.252Z,-3.00
2019-01-25T06:02:24.333Z,-3.00
2019-01-25T06:05:04.780Z,-2.90
2019-01-25T06:07:45.423Z,-3.00
2019-01-25T06:10:31.867Z,-3.00
2019-01-25T06:13:17.629Z,-2.90
2019-01-25T06:16:11.839Z,-3.00
2019-01-25T06:18:53.145Z,-3.00
2019-01-25T06:21:42.082Z,-5.30
2019-01-25T06:24:23.166Z,-2.90
2019-01-25T06:32:39.768Z,-2.90
2019-01-25T06:35:21.240Z,-2.80
2019-01-25T06:37:50.276Z,-2.90
2019-01-25T06:43:11.768Z,-2.80
2019-01-25T06:46:00.038Z,-2.90
2019-01-25T06:48:40.981Z,-3.00
2019-01-25T06:54:03.961Z,-3.00
2019-01-25T06:56:45.134Z,-2.80
2019-01-25T06:59:34.031Z,-2.70
2019-01-25T07:02:19.264Z,-2.70
2019-01-25T07:04:48.178Z,-2.70
2019-01-25T07:10:38.896Z,-2.70
2019-01-25T07:13:20.211Z,-2.90
2019-01-25T07:15:59.696Z,-2.80
2019-01-25T07:24:14.445Z,-2.60
2019-01-25T07:26:59.939Z,-2.60
2019-01-25T07:29:40.710Z,-2.60
2019-01-25T07:32:21.617Z,-2.60
2019-01-25T07:35:03.154Z,-2.70
2019-01-25T07:37:44.752Z,-2.60
2019-01-25T07:40:47.086Z,-2.60
2019-01-25T07:43:16.465Z,-2.50
2019-01-25T07:45:46.082Z,-2.60
2019-01-25T07:48:34.602Z,-2.60
2019-01-25T07:51:23.002Z,-2.40
2019-01-25T07:54:03.689Z,-2.40
2019-01-25T07:56:45.295Z,-2.50
2019-01-25T07:59:26.920Z,-2.40
2019-01-25T08:02:08.557Z,-2.40
2019-01-25T08:04:50.395Z,-2.30
2019-01-25T08:10:14.811Z,-2.20
2019-01-25T08:15:37.601Z,-2.20
2019-01-25T08:18:19.105Z,-2.20
2019-01-25T08:23:52.879Z,-2.20
2019-01-25T08:29:43.900Z,-2.10
2019-01-25T08:32:12.889Z,-2.10
2019-01-25T08:35:01.206Z,-2.00
2019-01-25T08:40:43.462Z,-2.10
2019-01-25T08:46:12.407Z,-2.00
2019-01-25T08:48:51.816Z,-1.90
2019-01-25T08:51:32.766Z,-1.80
2019-01-25T08:54:14.291Z,-1.70
2019-01-25T08:56:55.241Z,-1.70
2019-01-25T08:59:36.517Z,-1.50
2019-01-25T09:02:17.578Z,-1.50
2019-01-25T09:04:59.301Z,-1.50
2019-01-25T09:07:28.446Z,-1.60
2019-01-25T09:10:17.615Z,-1.50
2019-01-25T09:12:58.819Z,-1.40
2019-01-25T09:15:29.382Z,-1.20
2019-01-25T09:18:17.832Z,-1.30
2019-01-25T09:21:06.408Z,-1.30
2019-01-25T09:23:47.520Z,-1.40
2019-01-25T09:26:29.081Z,-1.30
2019-01-25T09:29:10.696Z,-1.20
2019-01-25T09:31:51.302Z,-1.00
2019-01-25T09:34:32.979Z,-1.10
2019-01-25T09:37:13.637Z,-1.00
2019-01-25T09:39:54.363Z,-1.10
2019-01-25T09:45:25.472Z,-0.80
2019-01-25T09:48:06.870Z,-0.60
2019-01-25T09:50:52.758Z,-0.60
2019-01-25T09:53:30.839Z,-0.70
2019-01-25T09:56:11.902Z,-0.70
2019-01-25T09:58:53.225Z,-0.70
2019-01-25T10:01:34.674Z,-0.70
2019-01-25T10:04:15.374Z,-0.60
2019-01-25T10:06:56.419Z,-0.40
2019-01-25T10:12:19.446Z,-0.20
2019-01-25T10:15:03.483Z,-0.10
2019-01-25T10:23:26.281Z,0.00
2019-01-25T10:26:07.612Z,0.10
2019-01-25T10:28:48.193Z,-0.50
2019-01-25T10:31:29.425Z,-0.40
2019-01-25T10:34:11.639Z,-0.30
2019-01-25T10:36:40.811Z,-0.40
2019-01-25T10:39:29.093Z,-0.30
2019-01-25T10:42:10.401Z,-0.20
2019-01-25T10:44:51.642Z,-0.10
2019-01-25T10:47:42.016Z,-0.10
2019-01-25T10:50:23.019Z,0.50
2019-01-25T10:53:03.759Z,0.50
2019-01-25T10:55:33.062Z,1.10
2019-01-25T10:58:21.391Z,1.30
2019-01-25T11:01:09.731Z,0.90
2019-01-25T11:03:38.851Z,0.40
2019-01-25T11:06:47.971Z,0.20
2019-01-25T11:09:28.774Z,0.20
2019-01-25T11:12:09.456Z,0.40
2019-01-25T11:14:50.680Z,0.60
2019-01-25T11:17:36.361Z,0.90
2019-01-25T11:20:15.152Z,0.70
2019-01-25T11:22:56.575Z,0.60
2019-01-25T11:25:37.377Z,0.70
2019-01-25T11:30:50.688Z,0.70
2019-01-25T11:33:38.986Z,0.50
2019-01-25T11:36:20.082Z,0.50
2019-01-25T11:39:01.527Z,0.60
2019-01-25T11:41:43.031Z,0.60
2019-01-25T11:44:24.361Z,0.50
2019-01-25T11:46:53.391Z,0.50
2019-01-25T11:49:42.107Z,0.40
2019-01-25T11:53:08.513Z,0.30
2019-01-25T11:55:49.540Z,0.30
2019-01-25T11:58:30.543Z,0.30
2019-01-25T12:03:58.436Z,0.40
2019-01-25T12:06:43.626Z,0.60
2019-01-25T12:15:23.000Z,1.20
2019-01-25T12:18:04.332Z,1.10
2019-01-25T12:20:33.379Z,0.90
2019-01-25T12:23:21.593Z,0.60
2019-01-25T12:26:09.823Z,0.50
2019-01-25T12:28:50.933Z,0.50
2019-01-25T12:31:32.155Z,0.30
2019-01-25T12:34:13.568Z,0.30
2019-01-25T12:36:54.354Z,0.30
2019-01-25T12:39:35.803Z,0.30
2019-01-25T12:42:16.935Z,0.20
2019-01-25T12:47:47.528Z,0.10
2019-01-25T12:50:35.986Z,0.00
2019-01-25T12:53:19.888Z,0.30
2019-01-25T12:56:01.367Z,0.30
2019-01-25T12:58:30.969Z,0.30
2019-01-25T13:03:32.161Z,0.20
2019-01-25T13:06:12.802Z,0.20
2019-01-25T13:08:52.172Z,0.10
2019-01-25T13:11:40.344Z,0.10
2019-01-25T13:14:21.871Z,0.00
2019-01-25T13:17:26.852Z,0.00
2019-01-25T13:19:38.985Z,0.00
2019-01-25T13:22:27.243Z,0.10
2019-01-25T13:25:08.612Z,0.10
2019-01-25T13:27:49.555Z,-0.40
2019-01-25T13:30:21.113Z,-0.50
2019-01-25T13:33:09.359Z,-0.60
2019-01-25T13:35:38.666Z,-0.50
2019-01-25T13:38:27.120Z,-0.40
2019-01-25T13:41:15.474Z,-0.50
2019-01-25T13:43:57.987Z,-0.50
2019-01-25T13:46:38.484Z,-0.50
2019-01-25T13:49:19.579Z,-0.50
2019-01-25T13:51:48.620Z,-0.40
2019-01-25T13:54:17.737Z,-0.20
2019-01-25T13:57:06.068Z,-0.30
2019-01-25T13:59:54.612Z,-0.20
2019-01-25T14:02:36.508Z,-0.20
2019-01-25T14:05:17.698Z,-0.10
2019-01-25T14:07:58.309Z,-0.10
2019-01-25T14:10:32.682Z,-0.10
2019-01-25T14:13:20.825Z,0.00
2019-01-25T14:16:09.298Z,0.00
2019-01-25T14:18:52.170Z,0.10
2019-01-25T14:21:33.703Z,0.00
2019-01-25T14:27:02.009Z,0.00
2019-01-25T14:29:50.315Z,0.00
2019-01-25T14:32:31.502Z,0.00
2019-01-25T14:35:12.385Z,-0.10
2019-01-25T14:37:52.973Z,-0.20
2019-01-25T14:40:34.464Z,-0.20
2019-01-25T14:43:15.048Z,-0.20
2019-01-25T14:45:56.700Z,-0.10
2019-01-25T14:48:26.029Z,-0.10
2019-01-25T14:56:48.777Z,0.00
2019-01-25T14:59:29.626Z,0.10
2019-01-25T15:05:24.774Z,0.00
2019-01-25T15:07:49.904Z,0.10
2019-01-25T15:10:30.628Z,0.00
2019-01-25T15:13:11.308Z,0.00
2019-01-25T15:18:47.126Z,0.10
2019-01-25T15:24:12.665Z,0.30
2019-01-25T15:26:41.685Z,0.30
2019-01-25T15:29:29.820Z,0.30
2019-01-25T15:32:20.571Z,0.10
2019-01-25T15:37:38.580Z,0.10
2019-01-25T15:40:27.023Z,0.00
2019-01-25T15:43:07.950Z,0.00
2019-01-25T15:45:51.594Z,0.00
2019-01-25T15:48:20.905Z,0.00
2019-01-25T15:51:09.221Z,0.00
2019-01-25T15:54:13.847Z,0.00
2019-01-25T15:56:57.616Z,-0.10
2019-01-25T15:59:27.174Z,-0.20
2019-01-25T16:02:15.429Z,-0.10
2019-01-25T16:04:44.482Z,-0.20
2019-01-25T16:07:33.060Z,-0.10
2019-01-25T16:10:21.582Z,-0.20
2019-01-25T16:13:02.278Z,-0.20
2019-01-25T16:15:43.269Z,-0.20
2019-01-25T16:18:24.794Z,-0.20
2019-01-25T16:21:05.488Z,-0.10
2019-01-25T16:23:46.918Z,-0.10
2019-01-25T16:26:28.433Z,-0.20
2019-01-25T16:29:09.938Z,0.00
2019-01-25T16:34:33.138Z,-0.10
2019-01-25T16:37:15.388Z,-0.10
2019-01-25T16:39:44.599Z,-0.10
2019-01-25T16:45:32.019Z,-0.10
2019-01-25T16:50:55.304Z,0.00
2019-01-25T16:53:35.824Z,0.00
2019-01-25T16:56:17.351Z,0.00
2019-01-25T17:01:45.961Z,0.00
2019-01-25T17:04:33.719Z,0.00
2019-01-25T17:07:14.698Z,0.00
2019-01-25T17:09:55.439Z,0.00
2019-01-25T17:12:25.352Z,0.00
2019-01-25T17:15:13.690Z,-0.10
2019-01-25T17:18:02.074Z,0.00
2019-01-25T17:20:42.959Z,0.00
2019-01-25T17:23:24.588Z,0.10
2019-01-25T17:28:53.971Z,0.10
2019-01-25T17:31:35.367Z,-0.10
2019-01-25T17:34:14.665Z,0.00
2019-01-25T17:37:03.036Z,0.10
2019-01-25T17:39:55.986Z,0.10
2019-01-25T17:42:36.771Z,0.20
2019-01-25T17:45:18.063Z,0.10
2019-01-25T17:47:47.180Z,0.00
2019-01-25T17:53:55.908Z,0.10
2019-01-25T17:56:36.963Z,-0.10
2019-01-25T17:59:17.622Z,0.00
2019-01-25T18:01:58.289Z,0.00
2019-01-25T18:04:40.317Z,0.00
2019-01-25T18:07:21.878Z,0.00
2019-01-25T18:10:02.783Z,0.10
2019-01-25T18:12:43.902Z,0.00
2019-01-25T18:15:24.485Z,0.00
2019-01-25T18:18:05.149Z,-0.10
2019-01-25T18:20:34.239Z,0.00
2019-01-25T18:23:22.542Z,0.00
2019-01-25T18:26:21.483Z,-0.10
2019-01-25T18:29:20.295Z,-0.10
2019-01-25T18:32:08.758Z,-0.10
2019-01-25T18:34:50.220Z,-0.20
2019-01-25T18:40:13.178Z,-0.30
2019-01-25T18:42:42.515Z,-0.30
2019-01-25T18:45:30.682Z,-0.30
2019-01-25T18:48:18.923Z,-0.40
2019-01-25T18:51:00.404Z,-0.30
2019-01-25T18:53:41.165Z,-0.50
2019-01-25T18:56:22.416Z,-0.60
2019-01-25T18:59:03.560Z,-0.60
2019-01-25T19:01:33.137Z,-0.60
2019-01-25T19:04:21.545Z,-0.60
2019-01-25T19:06:50.777Z,-0.50
2019-01-25T19:09:39.105Z,-0.60
2019-01-25T19:12:27.461Z,-0.70
2019-01-25T19:15:08.737Z,-0.70
2019-01-25T19:17:49.427Z,-0.80
2019-01-25T19:20:31.248Z,-0.80
2019-01-25T19:23:12.283Z,-0.80
2019-01-25T19:25:53.565Z,-0.70
2019-01-25T19:28:35.024Z,-0.80
2019-01-25T19:31:04.056Z,-0.90
2019-01-25T19:33:52.398Z,-0.80
2019-01-25T19:36:40.728Z,-0.80
2019-01-25T19:39:21.603Z,-0.80
2019-01-25T19:41:50.776Z,-0.80
2019-01-25T19:44:39.038Z,-0.80
2019-01-25T19:47:27.256Z,-0.90
2019-01-25T19:50:08.115Z,-0.90
2019-01-25T19:52:49.775Z,-0.90
2019-01-25T19:55:31.314Z,-0.90
2019-01-25T19:58:12.436Z,-0.80
2019-01-25T20:00:53.270Z,-0.90
2019-01-25T20:06:23.857Z,-0.90
2019-01-25T20:09:05.486Z,-0.90
2019-01-25T20:14:23.334Z,-0.90
2019-01-25T20:17:11.625Z,-0.90
2019-01-25T20:19:40.872Z,-0.80
2019-01-25T20:22:29.261Z,-0.80
2019-01-25T20:25:17.600Z,-0.80
2019-01-25T20:27:46.774Z,-0.80
2019-01-25T20:30:35.335Z,-0.70
2019-01-25T20:33:04.580Z,-0.70
2019-01-25T20:35:52.940Z,-0.60
2019-01-25T20:38:33.557Z,-0.70
2019-01-25T20:41:14.385Z,-0.60
2019-01-25T20:43:55.015Z,-0.50
2019-01-25T20:49:24.701Z,-0.60
2019-01-25T20:51:54.012Z,-0.50
2019-01-25T20:54:42.413Z,-0.50
2019-01-25T21:00:20.896Z,-0.40
2019-01-25T21:02:49.993Z,-0.40
2019-01-25T21:05:39.061Z,-0.40
2019-01-25T21:08:27.437Z,-0.40
2019-01-25T21:11:08.400Z,-0.50
2019-01-25T21:16:31.260Z,-0.30
2019-01-25T21:19:12.609Z,-0.30
2019-01-25T21:21:41.818Z,-0.30
2019-01-25T21:24:30.174Z,-0.30
2019-01-25T21:27:11.216Z,-0.30
2019-01-25T21:29:52.721Z,-0.30
2019-01-25T21:35:39.690Z,-0.30
2019-01-25T21:38:09.004Z,-0.20
2019-01-25T21:40:50.299Z,-0.30
2019-01-25T21:43:31.031Z,-0.40
2019-01-25T21:46:12.230Z,-0.30
2019-01-25T21:48:53.945Z,-0.20
2019-01-25T21:54:42.695Z,-0.10
2019-01-25T21:57:23.533Z,-0.10
2019-01-25T21:59:53.217Z,-0.10
2019-01-25T22:02:41.471Z,0.00
2019-01-25T22:05:29.895Z,-0.20
2019-01-25T22:08:10.638Z,0.00
2019-01-25T22:10:55.056Z,-0.10
2019-01-25T22:13:24.512Z,0.00
2019-01-25T22:16:12.798Z,0.00
2019-01-25T22:19:01.168Z,0.00
2019-01-25T22:21:42.355Z,0.00
2019-01-25T22:27:06.078Z,-0.10
2019-01-25T22:29:47.255Z,0.00
2019-01-25T22:35:10.946Z,0.00
2019-01-25T22:37:50.446Z,0.00
2019-01-25T22:40:31.162Z,0.10
2019-01-25T22:43:00.476Z,0.00
2019-01-25T22:45:49.032Z,0.10
2019-01-25T22:48:37.137Z,0.10
2019-01-25T22:51:18.410Z,0.20
2019-01-25T22:56:41.079Z,0.10
2019-01-25T23:02:06.454Z,0.10
2019-01-25T23:07:32.484Z,0.20
2019-01-25T23:10:13.920Z,0.20
2019-01-25T23:12:54.703Z,0.20
2019-01-25T23:15:34.082Z,0.30
2019-01-25T23:18:15.748Z,0.10
2019-01-25T23:23:41.890Z,0.20
2019-01-25T23:26:23.289Z,0.10
2019-01-25T23:29:06.845Z,0.30
2019-01-25T23:34:36.065Z,0.20
2019-01-25T23:39:59.534Z,0.40
2019-01-25T23:42:29.074Z,0.20
2019-01-25T23:45:17.452Z,0.40
2019-01-25T23:47:46.480Z,0.30
2019-01-25T23:50:15.529Z,0.30
2019-01-25T23:52:44.491Z,0.30
2019-01-25T23:55:13.591Z,0.40
2019-01-25T23:57:42.764Z,0.30
